Terminal Aerodrome Forecast
Issued by NWS Tulsa, OK

Home | Current Version | Previous Version | Text Only | Print | Product List | Glossary On
Versions: 1 2 3 4 5 6 7 8 9 10 11 12 13 14 15 16 17 18 19 20 21
963
FTUS44 KTSA 061720
TAFFSM
TAF
KFSM 061720Z 0618/0718 34010KT P6SM BKN024
     FM062100 36007KT P6SM OVC100
     FM070000 04005KT P6SM OVC250
     FM070900 06008KT P6SM OVC050
     FM071500 07008KT P6SM OVC025=

USA.gov is the U.S. government's official web portal to all federal, state and local government web resources and services.